sensor_id;sensor_type;location;lat;lon;timestamp;temperature;humidity
42031;DHT22;27709;52.036;5.906;2022-11-12T00:00:33;6.30;99.90
42031;DHT22;27709;52.036;5.906;2022-11-12T00:02:59;6.40;99.90
42031;DHT22;27709;52.036;5.906;2022-11-12T00:05:25;6.40;99.90
42031;DHT22;27709;52.036;5.906;2022-11-12T00:07:51;6.40;99.90
42031;DHT22;27709;52.036;5.906;2022-11-12T00:10:17;6.30;99.90
42031;DHT22;27709;52.036;5.906;2022-11-12T00:12:42;6.30;99.90
42031;DHT22;27709;52.036;5.906;2022-11-12T00:15:08;6.30;99.90
42031;DHT22;27709;52.036;5.906;2022-11-12T00:17:34;6.20;99.90
42031;DHT22;27709;52.036;5.906;2022-11-12T00:20:00;6.30;99.90
42031;DHT22;27709;52.036;5.906;2022-11-12T00:22:25;6.20;99.90
42031;DHT22;27709;52.036;5.906;2022-11-12T00:24:51;6.20;99.90
42031;DHT22;27709;52.036;5.906;2022-11-12T00:27:16;6.10;99.90
42031;DHT22;27709;52.036;5.906;2022-11-12T00:29:43;6.10;99.90
42031;DHT22;27709;52.036;5.906;2022-11-12T00:32:10;6.10;99.90
42031;DHT22;27709;52.036;5.906;2022-11-12T00:34:36;6.00;99.90
42031;DHT22;27709;52.036;5.906;2022-11-12T00:37:01;6.00;99.90
42031;DHT22;27709;52.036;5.906;2022-11-12T00:39:28;5.80;99.90
42031;DHT22;27709;52.036;5.906;2022-11-12T00:41:53;5.80;99.90
42031;DHT22;27709;52.036;5.906;2022-11-12T00:44:19;5.70;99.90
42031;DHT22;27709;52.036;5.906;2022-11-12T00:46:45;5.70;99.90
42031;DHT22;27709;52.036;5.906;2022-11-12T00:49:10;5.80;99.90
42031;DHT22;27709;52.036;5.906;2022-11-12T00:51:36;5.70;99.90
42031;DHT22;27709;52.036;5.906;2022-11-12T00:54:02;5.70;99.90
42031;DHT22;27709;52.036;5.906;2022-11-12T00:56:28;5.60;99.90
42031;DHT22;27709;52.036;5.906;2022-11-12T00:58:57;5.60;99.90
42031;DHT22;27709;52.036;5.906;2022-11-12T01:09:17;5.60;99.90
42031;DHT22;27709;52.036;5.906;2022-11-12T01:14:46;5.60;99.90
42031;DHT22;27709;52.036;5.906;2022-11-12T01:17:51;5.60;99.90
42031;DHT22;27709;52.036;5.906;2022-11-12T01:20:17;5.60;99.90
42031;DHT22;27709;52.036;5.906;2022-11-12T01:31:28;5.30;99.90
42031;DHT22;27709;52.036;5.906;2022-11-12T01:34:29;5.30;99.90
42031;DHT22;27709;52.036;5.906;2022-11-12T01:37:20;5.30;99.90
42031;DHT22;27709;52.036;5.906;2022-11-12T01:42:39;5.20;99.90
42031;DHT22;27709;52.036;5.906;2022-11-12T01:45:18;5.10;99.90
42031;DHT22;27709;52.036;5.906;2022-11-12T01:56:17;5.00;99.90
42031;DHT22;27709;52.036;5.906;2022-11-12T02:06:35;5.20;99.90
42031;DHT22;27709;52.036;5.906;2022-11-12T02:09:02;5.10;99.90
42031;DHT22;27709;52.036;5.906;2022-11-12T02:11:29;5.00;99.90
42031;DHT22;27709;52.036;5.906;2022-11-12T02:13:54;5.00;99.90
42031;DHT22;27709;52.036;5.906;2022-11-12T02:16:44;5.00;99.90
42031;DHT22;27709;52.036;5.906;2022-11-12T02:19:13;5.00;99.90
42031;DHT22;27709;52.036;5.906;2022-11-12T02:21:40;4.90;99.90
42031;DHT22;27709;52.036;5.906;2022-11-12T02:26:47;5.00;99.90
42031;DHT22;27709;52.036;5.906;2022-11-12T03:16:44;4.80;99.90
42031;DHT22;27709;52.036;5.906;2022-11-12T03:35:08;4.90;99.90
42031;DHT22;27709;52.036;5.906;2022-11-12T03:40:19;5.00;99.90
42031;DHT22;27709;52.036;5.906;2022-11-12T04:06:08;5.40;99.90
42031;DHT22;27709;52.036;5.906;2022-11-12T04:08:52;5.40;99.90
42031;DHT22;27709;52.036;5.906;2022-11-12T04:11:18;5.40;99.90
42031;DHT22;27709;52.036;5.906;2022-11-12T04:13:46;5.50;99.90
42031;DHT22;27709;52.036;5.906;2022-11-12T04:16:14;5.50;99.90
42031;DHT22;27709;52.036;5.906;2022-11-12T04:19:00;5.50;99.90
42031;DHT22;27709;52.036;5.906;2022-11-12T04:21:48;5.60;99.90
42031;DHT22;27709;52.036;5.906;2022-11-12T04:29:31;5.60;99.90
42031;DHT22;27709;52.036;5.906;2022-11-12T04:32:21;5.60;99.90
42031;DHT22;27709;52.036;5.906;2022-11-12T04:34:47;5.50;99.90
42031;DHT22;27709;52.036;5.906;2022-11-12T04:37:14;5.50;99.90
42031;DHT22;27709;52.036;5.906;2022-11-12T04:39:44;5.50;99.90
42031;DHT22;27709;52.036;5.906;2022-11-12T04:44:45;5.40;99.90
42031;DHT22;27709;52.036;5.906;2022-11-12T04:47:32;5.40;99.90
42031;DHT22;27709;52.036;5.906;2022-11-12T04:49:59;5.30;99.90
42031;DHT22;27709;52.036;5.906;2022-11-12T04:52:26;5.10;99.90
42031;DHT22;27709;52.036;5.906;2022-11-12T04:54:53;5.10;99.90
42031;DHT22;27709;52.036;5.906;2022-11-12T04:57:20;5.10;99.90
42031;DHT22;27709;52.036;5.906;2022-11-12T04:59:46;5.10;99.90
42031;DHT22;27709;52.036;5.906;2022-11-12T05:10:40;5.30;99.90
42031;DHT22;27709;52.036;5.906;2022-11-12T05:13:05;5.30;99.90
42031;DHT22;27709;52.036;5.906;2022-11-12T05:18:19;5.40;99.90
42031;DHT22;27709;52.036;5.906;2022-11-12T05:20:45;5.30;99.90
42031;DHT22;27709;52.036;5.906;2022-11-12T05:23:14;5.30;99.90
42031;DHT22;27709;52.036;5.906;2022-11-12T05:25:41;5.30;99.90
42031;DHT22;27709;52.036;5.906;2022-11-12T06:01:22;4.70;99.90
42031;DHT22;27709;52.036;5.906;2022-11-12T06:03:48;4.70;99.90
42031;DHT22;27709;52.036;5.906;2022-11-12T06:06:14;4.70;99.90
42031;DHT22;27709;52.036;5.906;2022-11-12T06:08:41;4.70;99.90
42031;DHT22;27709;52.036;5.906;2022-11-12T06:11:07;4.70;99.90
42031;DHT22;27709;52.036;5.906;2022-11-12T06:13:33;4.70;99.90
42031;DHT22;27709;52.036;5.906;2022-11-12T06:15:58;4.80;99.90
42031;DHT22;27709;52.036;5.906;2022-11-12T06:18:26;4.90;99.90
42031;DHT22;27709;52.036;5.906;2022-11-12T06:20:52;4.90;99.90
42031;DHT22;27709;52.036;5.906;2022-11-12T06:23:36;4.90;99.90
42031;DHT22;27709;52.036;5.906;2022-11-12T06:26:02;5.00;99.90
42031;DHT22;27709;52.036;5.906;2022-11-12T06:28:28;5.10;99.90
42031;DHT22;27709;52.036;5.906;2022-11-12T06:30:55;5.10;99.90
42031;DHT22;27709;52.036;5.906;2022-11-12T06:33:22;5.10;99.90
42031;DHT22;27709;52.036;5.906;2022-11-12T06:35:59;5.10;99.90
42031;DHT22;27709;52.036;5.906;2022-11-12T06:38:33;5.00;99.90
42031;DHT22;27709;52.036;5.906;2022-11-12T06:40:59;5.00;99.90
42031;DHT22;27709;52.036;5.906;2022-11-12T06:43:26;5.00;99.90
42031;DHT22;27709;52.036;5.906;2022-11-12T06:45:52;5.00;99.90
42031;DHT22;27709;52.036;5.906;2022-11-12T06:48:19;5.00;99.90
42031;DHT22;27709;52.036;5.906;2022-11-12T06:50:45;5.10;99.90
42031;DHT22;27709;52.036;5.906;2022-11-12T06:53:10;5.10;99.90
42031;DHT22;27709;52.036;5.906;2022-11-12T06:55:37;5.10;99.90
42031;DHT22;27709;52.036;5.906;2022-11-12T06:58:03;5.10;99.90
42031;DHT22;27709;52.036;5.906;2022-11-12T07:00:28;5.20;99.90
42031;DHT22;27709;52.036;5.906;2022-11-12T07:02:54;5.30;99.90
42031;DHT22;27709;52.036;5.906;2022-11-12T07:05:19;5.40;99.90
42031;DHT22;27709;52.036;5.906;2022-11-12T07:07:45;5.50;99.90
42031;DHT22;27709;52.036;5.906;2022-11-12T07:10:10;5.50;99.90
42031;DHT22;27709;52.036;5.906;2022-11-12T07:12:36;5.50;99.90
42031;DHT22;27709;52.036;5.906;2022-11-12T07:15:01;5.70;99.90
42031;DHT22;27709;52.036;5.906;2022-11-12T07:17:27;5.70;99.90
42031;DHT22;27709;52.036;5.906;2022-11-12T07:19:53;5.70;99.90
42031;DHT22;27709;52.036;5.906;2022-11-12T07:22:18;5.80;99.90
42031;DHT22;27709;52.036;5.906;2022-11-12T07:24:44;5.80;99.90
42031;DHT22;27709;52.036;5.906;2022-11-12T07:27:09;5.80;99.90
42031;DHT22;27709;52.036;5.906;2022-11-12T07:29:35;5.70;99.90
42031;DHT22;27709;52.036;5.906;2022-11-12T07:32:00;5.70;99.90
42031;DHT22;27709;52.036;5.906;2022-11-12T07:34:25;5.70;99.90
42031;DHT22;27709;52.036;5.906;2022-11-12T07:36:51;5.80;99.90
42031;DHT22;27709;52.036;5.906;2022-11-12T07:39:17;5.70;99.90
42031;DHT22;27709;52.036;5.906;2022-11-12T07:41:43;5.70;99.90
42031;DHT22;27709;52.036;5.906;2022-11-12T07:44:08;5.80;99.90
42031;DHT22;27709;52.036;5.906;2022-11-12T07:46:34;5.90;99.90
42031;DHT22;27709;52.036;5.906;2022-11-12T07:48:59;5.90;99.90
42031;DHT22;27709;52.036;5.906;2022-11-12T07:51:27;6.00;99.90
42031;DHT22;27709;52.036;5.906;2022-11-12T07:54:02;5.90;99.90
42031;DHT22;27709;52.036;5.906;2022-11-12T07:56:30;5.90;99.90
42031;DHT22;27709;52.036;5.906;2022-11-12T07:58:57;5.90;99.90
42031;DHT22;27709;52.036;5.906;2022-11-12T08:01:31;6.00;99.90
42031;DHT22;27709;52.036;5.906;2022-11-12T08:03:58;6.10;99.90
42031;DHT22;27709;52.036;5.906;2022-11-12T08:06:24;6.20;99.90
42031;DHT22;27709;52.036;5.906;2022-11-12T08:08:54;6.30;99.90
42031;DHT22;27709;52.036;5.906;2022-11-12T08:11:20;6.40;99.90
42031;DHT22;27709;52.036;5.906;2022-11-12T08:13:46;6.60;99.90
42031;DHT22;27709;52.036;5.906;2022-11-12T08:16:12;6.70;99.90
42031;DHT22;27709;52.036;5.906;2022-11-12T08:18:37;6.80;99.90
42031;DHT22;27709;52.036;5.906;2022-11-12T08:21:05;7.00;99.90
42031;DHT22;27709;52.036;5.906;2022-11-12T08:23:32;7.20;99.90
42031;DHT22;27709;52.036;5.906;2022-11-12T08:26:02;7.40;99.90
42031;DHT22;27709;52.036;5.906;2022-11-12T08:28:32;7.60;99.90
42031;DHT22;27709;52.036;5.906;2022-11-12T08:31:21;7.90;99.90
42031;DHT22;27709;52.036;5.906;2022-11-12T08:39:25;8.50;99.90
42031;DHT22;27709;52.036;5.906;2022-11-12T08:41:55;8.70;99.90
42031;DHT22;27709;52.036;5.906;2022-11-12T08:44:24;8.80;99.90
42031;DHT22;27709;52.036;5.906;2022-11-12T08:46:52;9.00;99.90
42031;DHT22;27709;52.036;5.906;2022-11-12T08:49:19;9.10;99.90
42031;DHT22;27709;52.036;5.906;2022-11-12T08:51:57;9.10;99.90
42031;DHT22;27709;52.036;5.906;2022-11-12T08:57:02;9.30;99.90
42031;DHT22;27709;52.036;5.906;2022-11-12T08:59:34;9.40;99.90
42031;DHT22;27709;52.036;5.906;2022-11-12T09:01:59;9.40;99.90
42031;DHT22;27709;52.036;5.906;2022-11-12T09:12:14;9.50;99.90
42031;DHT22;27709;52.036;5.906;2022-11-12T09:14:44;9.60;99.90
42031;DHT22;27709;52.036;5.906;2022-11-12T09:17:11;9.60;99.90
42031;DHT22;27709;52.036;5.906;2022-11-12T09:20:15;9.70;99.90
42031;DHT22;27709;52.036;5.906;2022-11-12T09:25:45;9.80;99.90
42031;DHT22;27709;52.036;5.906;2022-11-12T09:28:13;9.90;99.90
42031;DHT22;27709;52.036;5.906;2022-11-12T09:30:45;9.90;99.90
42031;DHT22;27709;52.036;5.906;2022-11-12T09:33:13;10.00;99.90
42031;DHT22;27709;52.036;5.906;2022-11-12T09:35:38;10.10;99.90
42031;DHT22;27709;52.036;5.906;2022-11-12T09:38:04;10.20;99.90
42031;DHT22;27709;52.036;5.906;2022-11-12T09:40:38;10.30;99.90
42031;DHT22;27709;52.036;5.906;2022-11-12T09:43:30;10.40;99.90
42031;DHT22;27709;52.036;5.906;2022-11-12T09:46:07;10.50;99.90
42031;DHT22;27709;52.036;5.906;2022-11-12T09:48:43;10.60;99.90
42031;DHT22;27709;52.036;5.906;2022-11-12T09:51:23;10.70;99.90
42031;DHT22;27709;52.036;5.906;2022-11-12T09:54:29;10.80;99.90
42031;DHT22;27709;52.036;5.906;2022-11-12T10:02:30;11.10;99.90
42031;DHT22;27709;52.036;5.906;2022-11-12T10:10:52;11.30;99.90
42031;DHT22;27709;52.036;5.906;2022-11-12T10:13:47;11.50;99.90
42031;DHT22;27709;52.036;5.906;2022-11-12T10:16:40;11.60;99.90
42031;DHT22;27709;52.036;5.906;2022-11-12T10:25:18;12.20;99.90
42031;DHT22;27709;52.036;5.906;2022-11-12T10:27:50;12.40;99.90
42031;DHT22;27709;52.036;5.906;2022-11-12T10:30:21;12.50;99.90
42031;DHT22;27709;52.036;5.906;2022-11-12T10:32:52;12.60;99.90
42031;DHT22;27709;52.036;5.906;2022-11-12T10:35:22;12.80;99.90
42031;DHT22;27709;52.036;5.906;2022-11-12T10:38:04;12.90;99.90
42031;DHT22;27709;52.036;5.906;2022-11-12T10:40:41;13.00;99.90
42031;DHT22;27709;52.036;5.906;2022-11-12T10:43:21;13.10;99.90
42031;DHT22;27709;52.036;5.906;2022-11-12T10:46:12;13.20;99.90
42031;DHT22;27709;52.036;5.906;2022-11-12T10:48:53;13.30;99.90
42031;DHT22;27709;52.036;5.906;2022-11-12T10:51:29;13.30;99.90
42031;DHT22;27709;52.036;5.906;2022-11-12T10:53:54;13.40;99.90
42031;DHT22;27709;52.036;5.906;2022-11-12T10:56:27;13.40;99.90
42031;DHT22;27709;52.036;5.906;2022-11-12T10:59:21;13.50;99.90
42031;DHT22;27709;52.036;5.906;2022-11-12T11:01:55;13.60;99.90
42031;DHT22;27709;52.036;5.906;2022-11-12T11:04:33;13.70;99.90
42031;DHT22;27709;52.036;5.906;2022-11-12T11:07:06;13.70;99.90
42031;DHT22;27709;52.036;5.906;2022-11-12T11:09:58;13.80;99.90
42031;DHT22;27709;52.036;5.906;2022-11-12T11:12:30;13.90;99.90
42031;DHT22;27709;52.036;5.906;2022-11-12T11:17:40;14.00;99.90
42031;DHT22;27709;52.036;5.906;2022-11-12T11:20:19;14.00;99.90
42031;DHT22;27709;52.036;5.906;2022-11-12T11:22:55;14.10;99.90
42031;DHT22;27709;52.036;5.906;2022-11-12T11:25:26;14.10;99.90
42031;DHT22;27709;52.036;5.906;2022-11-12T11:30:25;14.20;99.90
42031;DHT22;27709;52.036;5.906;2022-11-12T11:41:17;14.30;99.90
42031;DHT22;27709;52.036;5.906;2022-11-12T11:43:48;14.30;99.90
42031;DHT22;27709;52.036;5.906;2022-11-12T11:51:55;14.50;99.90
42031;DHT22;27709;52.036;5.906;2022-11-12T11:57:21;14.60;99.90
42031;DHT22;27709;52.036;5.906;2022-11-12T12:00:10;14.70;99.90
42031;DHT22;27709;52.036;5.906;2022-11-12T12:11:05;14.80;99.90
42031;DHT22;27709;52.036;5.906;2022-11-12T12:16:29;14.80;99.90
42031;DHT22;27709;52.036;5.906;2022-11-12T12:19:20;14.90;99.90
42031;DHT22;27709;52.036;5.906;2022-11-12T12:21:49;14.90;99.90
42031;DHT22;27709;52.036;5.906;2022-11-12T12:27:29;14.90;99.90
42031;DHT22;27709;52.036;5.906;2022-11-12T12:29:54;15.00;99.90
42031;DHT22;27709;52.036;5.906;2022-11-12T12:32:37;15.00;99.90
42031;DHT22;27709;52.036;5.906;2022-11-12T12:35:36;15.10;99.90
42031;DHT22;27709;52.036;5.906;2022-11-12T12:38:37;15.10;99.90
42031;DHT22;27709;52.036;5.906;2022-11-12T12:44:09;15.20;99.90
42031;DHT22;27709;52.036;5.906;2022-11-12T12:47:01;15.20;99.90
42031;DHT22;27709;52.036;5.906;2022-11-12T12:49:33;15.30;99.90
42031;DHT22;27709;52.036;5.906;2022-11-12T12:52:01;15.20;99.90
42031;DHT22;27709;52.036;5.906;2022-11-12T12:57:36;15.40;99.80
42031;DHT22;27709;52.036;5.906;2022-11-12T13:00:31;15.40;99.80
42031;DHT22;27709;52.036;5.906;2022-11-12T13:03:11;15.50;99.70
42031;DHT22;27709;52.036;5.906;2022-11-12T13:06:14;15.50;99.30
42031;DHT22;27709;52.036;5.906;2022-11-12T13:19:33;15.70;99.00
42031;DHT22;27709;52.036;5.906;2022-11-12T13:38:01;15.80;99.60
42031;DHT22;27709;52.036;5.906;2022-11-12T13:48:44;15.70;99.90
42031;DHT22;27709;52.036;5.906;2022-11-12T13:53:48;15.50;99.90
42031;DHT22;27709;52.036;5.906;2022-11-12T13:56:31;15.50;99.90
42031;DHT22;27709;52.036;5.906;2022-11-12T13:59:16;15.40;99.90
42031;DHT22;27709;52.036;5.906;2022-11-12T14:01:43;15.40;99.90
42031;DHT22;27709;52.036;5.906;2022-11-12T14:04:14;15.30;99.90
42031;DHT22;27709;52.036;5.906;2022-11-12T14:07:11;15.30;99.90
42031;DHT22;27709;52.036;5.906;2022-11-12T14:10:09;15.20;99.90
42031;DHT22;27709;52.036;5.906;2022-11-12T14:15:54;15.10;99.90
42031;DHT22;27709;52.036;5.906;2022-11-12T14:21:04;14.90;99.90
42031;DHT22;27709;52.036;5.906;2022-11-12T14:23:30;14.90;99.90
42031;DHT22;27709;52.036;5.906;2022-11-12T14:25:56;14.90;99.90
42031;DHT22;27709;52.036;5.906;2022-11-12T14:28:34;14.80;99.90
42031;DHT22;27709;52.036;5.906;2022-11-12T14:31:01;14.70;99.90
42031;DHT22;27709;52.036;5.906;2022-11-12T14:33:28;14.70;99.90
42031;DHT22;27709;52.036;5.906;2022-11-12T14:35:59;14.60;99.90
42031;DHT22;27709;52.036;5.906;2022-11-12T14:38:44;14.60;99.90
42031;DHT22;27709;52.036;5.906;2022-11-12T14:41:32;14.50;99.90
42031;DHT22;27709;52.036;5.906;2022-11-12T14:44:03;14.40;99.90
42031;DHT22;27709;52.036;5.906;2022-11-12T14:49:05;14.20;99.90
42031;DHT22;27709;52.036;5.906;2022-11-12T14:51:47;14.20;99.90
42031;DHT22;27709;52.036;5.906;2022-11-12T14:54:22;14.10;99.90
42031;DHT22;27709;52.036;5.906;2022-11-12T14:56:52;14.10;99.90
42031;DHT22;27709;52.036;5.906;2022-11-12T14:59:23;14.00;99.90
42031;DHT22;27709;52.036;5.906;2022-11-12T15:02:16;13.90;99.90
42031;DHT22;27709;52.036;5.906;2022-11-12T15:04:51;13.80;99.90
42031;DHT22;27709;52.036;5.906;2022-11-12T15:10:39;13.70;99.90
42031;DHT22;27709;52.036;5.906;2022-11-12T15:13:10;13.60;99.90
42031;DHT22;27709;52.036;5.906;2022-11-12T15:15:48;13.50;99.90
42031;DHT22;27709;52.036;5.906;2022-11-12T15:18:18;13.40;99.90
42031;DHT22;27709;52.036;5.906;2022-11-12T15:23:30;13.30;99.90
42031;DHT22;27709;52.036;5.906;2022-11-12T15:26:00;13.20;99.90
42031;DHT22;27709;52.036;5.906;2022-11-12T15:28:27;13.10;99.90
42031;DHT22;27709;52.036;5.906;2022-11-12T15:31:05;13.10;99.90
42031;DHT22;27709;52.036;5.906;2022-11-12T15:33:33;13.00;99.90
42031;DHT22;27709;52.036;5.906;2022-11-12T15:36:00;12.90;99.90
42031;DHT22;27709;52.036;5.906;2022-11-12T15:38:32;12.80;99.90
42031;DHT22;27709;52.036;5.906;2022-11-12T15:41:04;12.80;99.90
42031;DHT22;27709;52.036;5.906;2022-11-12T15:43:40;12.70;99.90
42031;DHT22;27709;52.036;5.906;2022-11-12T15:46:12;12.70;99.90
42031;DHT22;27709;52.036;5.906;2022-11-12T15:48:40;12.60;99.90
42031;DHT22;27709;52.036;5.906;2022-11-12T15:51:10;12.50;99.90
42031;DHT22;27709;52.036;5.906;2022-11-12T15:53:36;12.40;99.90
42031;DHT22;27709;52.036;5.906;2022-11-12T15:56:03;12.30;99.90
42031;DHT22;27709;52.036;5.906;2022-11-12T15:58:34;12.20;99.90
42031;DHT22;27709;52.036;5.906;2022-11-12T16:01:11;12.10;99.90
42031;DHT22;27709;52.036;5.906;2022-11-12T16:03:36;12.00;99.90
42031;DHT22;27709;52.036;5.906;2022-11-12T16:06:05;11.90;99.90
42031;DHT22;27709;52.036;5.906;2022-11-12T16:08:31;11.90;99.90
42031;DHT22;27709;52.036;5.906;2022-11-12T16:10:59;11.80;99.90
42031;DHT22;27709;52.036;5.906;2022-11-12T16:13:32;11.70;99.90
42031;DHT22;27709;52.036;5.906;2022-11-12T16:16:09;11.70;99.90
42031;DHT22;27709;52.036;5.906;2022-11-12T16:18:36;11.60;99.90
42031;DHT22;27709;52.036;5.906;2022-11-12T16:21:01;11.50;99.90
42031;DHT22;27709;52.036;5.906;2022-11-12T16:23:33;11.50;99.90
42031;DHT22;27709;52.036;5.906;2022-11-12T16:25:59;11.40;99.90
42031;DHT22;27709;52.036;5.906;2022-11-12T16:28:25;11.40;99.90
42031;DHT22;27709;52.036;5.906;2022-11-12T16:30:52;11.40;99.90
42031;DHT22;27709;52.036;5.906;2022-11-12T16:33:19;11.30;99.90
42031;DHT22;27709;52.036;5.906;2022-11-12T16:35:44;11.30;99.90
42031;DHT22;27709;52.036;5.906;2022-11-12T16:38:15;11.30;99.90
42031;DHT22;27709;52.036;5.906;2022-11-12T16:40:42;11.20;99.90
42031;DHT22;27709;52.036;5.906;2022-11-12T16:43:08;11.10;99.90
42031;DHT22;27709;52.036;5.906;2022-11-12T16:45:38;11.10;99.90
42031;DHT22;27709;52.036;5.906;2022-11-12T16:48:20;11.00;99.90
42031;DHT22;27709;52.036;5.906;2022-11-12T16:50:47;11.00;99.90
42031;DHT22;27709;52.036;5.906;2022-11-12T16:53:13;10.90;99.90
42031;DHT22;27709;52.036;5.906;2022-11-12T16:55:38;10.80;99.90
42031;DHT22;27709;52.036;5.906;2022-11-12T16:58:04;10.70;99.90
42031;DHT22;27709;52.036;5.906;2022-11-12T17:00:30;10.60;99.90
42031;DHT22;27709;52.036;5.906;2022-11-12T17:02:55;10.50;99.90
42031;DHT22;27709;52.036;5.906;2022-11-12T17:05:22;10.40;99.90
42031;DHT22;27709;52.036;5.906;2022-11-12T17:07:54;10.30;99.90
42031;DHT22;27709;52.036;5.906;2022-11-12T17:10:21;10.20;99.90
42031;DHT22;27709;52.036;5.906;2022-11-12T17:12:53;10.10;99.90
42031;DHT22;27709;52.036;5.906;2022-11-12T17:15:19;10.00;99.90
42031;DHT22;27709;52.036;5.906;2022-11-12T17:17:44;9.90;99.90
42031;DHT22;27709;52.036;5.906;2022-11-12T17:20:10;9.90;99.90
42031;DHT22;27709;52.036;5.906;2022-11-12T17:22:36;9.80;99.90
42031;DHT22;27709;52.036;5.906;2022-11-12T17:25:02;9.70;99.90
42031;DHT22;27709;52.036;5.906;2022-11-12T17:27:27;9.70;99.90
42031;DHT22;27709;52.036;5.906;2022-11-12T17:29:53;9.70;99.90
42031;DHT22;27709;52.036;5.906;2022-11-12T17:32:19;9.60;99.90
42031;DHT22;27709;52.036;5.906;2022-11-12T17:34:45;9.60;99.90
42031;DHT22;27709;52.036;5.906;2022-11-12T17:37:10;9.50;99.90
42031;DHT22;27709;52.036;5.906;2022-11-12T17:39:37;9.40;99.90
42031;DHT22;27709;52.036;5.906;2022-11-12T17:42:04;9.30;99.90
42031;DHT22;27709;52.036;5.906;2022-11-12T17:44:30;9.20;99.90
42031;DHT22;27709;52.036;5.906;2022-11-12T17:46:55;9.20;99.90
42031;DHT22;27709;52.036;5.906;2022-11-12T17:49:21;9.10;99.90
42031;DHT22;27709;52.036;5.906;2022-11-12T17:51:48;9.10;99.90
42031;DHT22;27709;52.036;5.906;2022-11-12T17:54:13;9.10;99.90
42031;DHT22;27709;52.036;5.906;2022-11-12T17:56:39;9.10;99.90
42031;DHT22;27709;52.036;5.906;2022-11-12T17:59:04;9.10;99.90
42031;DHT22;27709;52.036;5.906;2022-11-12T18:01:31;9.10;99.90
42031;DHT22;27709;52.036;5.906;2022-11-12T18:03:57;9.10;99.90
42031;DHT22;27709;52.036;5.906;2022-11-12T18:06:25;9.10;99.90
42031;DHT22;27709;52.036;5.906;2022-11-12T18:08:53;9.10;99.90
42031;DHT22;27709;52.036;5.906;2022-11-12T18:11:20;9.20;99.90
42031;DHT22;27709;52.036;5.906;2022-11-12T18:13:45;9.30;99.90
42031;DHT22;27709;52.036;5.906;2022-11-12T18:16:16;9.30;99.90
42031;DHT22;27709;52.036;5.906;2022-11-12T18:18:42;9.40;99.90
42031;DHT22;27709;52.036;5.906;2022-11-12T18:21:08;9.40;99.90
42031;DHT22;27709;52.036;5.906;2022-11-12T18:23:38;9.40;99.90
42031;DHT22;27709;52.036;5.906;2022-11-12T18:26:04;9.40;99.90
42031;DHT22;27709;52.036;5.906;2022-11-12T18:28:30;9.40;99.90
42031;DHT22;27709;52.036;5.906;2022-11-12T18:31:06;9.40;99.90
42031;DHT22;27709;52.036;5.906;2022-11-12T18:33:32;9.50;99.90
42031;DHT22;27709;52.036;5.906;2022-11-12T18:36:02;9.40;99.90
42031;DHT22;27709;52.036;5.906;2022-11-12T18:38:31;9.30;99.90
42031;DHT22;27709;52.036;5.906;2022-11-12T18:41:06;9.30;99.90
42031;DHT22;27709;52.036;5.906;2022-11-12T18:43:32;9.20;99.90
42031;DHT22;27709;52.036;5.906;2022-11-12T18:45:58;9.10;99.90
42031;DHT22;27709;52.036;5.906;2022-11-12T18:48:30;9.10;99.90
42031;DHT22;27709;52.036;5.906;2022-11-12T18:51:00;9.10;99.90
42031;DHT22;27709;52.036;5.906;2022-11-12T18:53:27;9.10;99.90
42031;DHT22;27709;52.036;5.906;2022-11-12T18:56:02;9.10;99.90
42031;DHT22;27709;52.036;5.906;2022-11-12T18:58:28;9.00;99.90
42031;DHT22;27709;52.036;5.906;2022-11-12T19:00:54;9.00;99.90
42031;DHT22;27709;52.036;5.906;2022-11-12T19:03:19;9.00;99.90
42031;DHT22;27709;52.036;5.906;2022-11-12T19:05:46;9.00;99.90
42031;DHT22;27709;52.036;5.906;2022-11-12T19:08:12;9.00;99.90
42031;DHT22;27709;52.036;5.906;2022-11-12T19:10:37;9.00;99.90
42031;DHT22;27709;52.036;5.906;2022-11-12T19:13:03;9.00;99.90
42031;DHT22;27709;52.036;5.906;2022-11-12T19:15:32;8.90;99.90
42031;DHT22;27709;52.036;5.906;2022-11-12T19:18:02;8.90;99.90
42031;DHT22;27709;52.036;5.906;2022-11-12T19:20:29;8.90;99.90
42031;DHT22;27709;52.036;5.906;2022-11-12T19:22:55;8.80;99.90
42031;DHT22;27709;52.036;5.906;2022-11-12T19:25:21;8.70;99.90
42031;DHT22;27709;52.036;5.906;2022-11-12T19:27:46;8.60;99.90
42031;DHT22;27709;52.036;5.906;2022-11-12T19:30:12;8.40;99.90
42031;DHT22;27709;52.036;5.906;2022-11-12T19:32:38;8.30;99.90
42031;DHT22;27709;52.036;5.906;2022-11-12T19:35:04;8.30;99.90
42031;DHT22;27709;52.036;5.906;2022-11-12T19:37:29;8.20;99.90
42031;DHT22;27709;52.036;5.906;2022-11-12T19:39:55;8.20;99.90
42031;DHT22;27709;52.036;5.906;2022-11-12T19:42:20;8.10;99.90
42031;DHT22;27709;52.036;5.906;2022-11-12T19:44:47;8.10;99.90
42031;DHT22;27709;52.036;5.906;2022-11-12T19:47:13;8.10;99.90
42031;DHT22;27709;52.036;5.906;2022-11-12T19:49:38;8.00;99.90
42031;DHT22;27709;52.036;5.906;2022-11-12T19:52:04;8.00;99.90
42031;DHT22;27709;52.036;5.906;2022-11-12T19:54:29;8.00;99.90
42031;DHT22;27709;52.036;5.906;2022-11-12T19:56:54;8.00;99.90
42031;DHT22;27709;52.036;5.906;2022-11-12T19:59:20;8.00;99.90
42031;DHT22;27709;52.036;5.906;2022-11-12T20:01:46;8.00;99.90
42031;DHT22;27709;52.036;5.906;2022-11-12T20:04:11;7.90;99.90
42031;DHT22;27709;52.036;5.906;2022-11-12T20:06:37;7.90;99.90
42031;DHT22;27709;52.036;5.906;2022-11-12T20:09:02;7.90;99.90
42031;DHT22;27709;52.036;5.906;2022-11-12T20:11:29;7.80;99.90
42031;DHT22;27709;52.036;5.906;2022-11-12T20:13:54;7.80;99.90
42031;DHT22;27709;52.036;5.906;2022-11-12T20:16:20;7.80;99.90
42031;DHT22;27709;52.036;5.906;2022-11-12T20:18:45;7.70;99.90
42031;DHT22;27709;52.036;5.906;2022-11-12T20:21:11;7.70;99.90
42031;DHT22;27709;52.036;5.906;2022-11-12T20:23:38;7.70;99.90
42031;DHT22;27709;52.036;5.906;2022-11-12T20:26:09;7.70;99.90
42031;DHT22;27709;52.036;5.906;2022-11-12T20:28:36;7.70;99.90
42031;DHT22;27709;52.036;5.906;2022-11-12T20:31:05;7.70;99.90
42031;DHT22;27709;52.036;5.906;2022-11-12T20:33:31;7.60;99.90
42031;DHT22;27709;52.036;5.906;2022-11-12T20:36:05;7.60;99.90
42031;DHT22;27709;52.036;5.906;2022-11-12T20:38:35;7.60;99.90
42031;DHT22;27709;52.036;5.906;2022-11-12T20:41:03;7.60;99.90
42031;DHT22;27709;52.036;5.906;2022-11-12T20:43:30;7.50;99.90
42031;DHT22;27709;52.036;5.906;2022-11-12T20:45:55;7.50;99.90
42031;DHT22;27709;52.036;5.906;2022-11-12T20:48:21;7.50;99.90
42031;DHT22;27709;52.036;5.906;2022-11-12T20:50:47;7.50;99.90
42031;DHT22;27709;52.036;5.906;2022-11-12T20:53:13;7.50;99.90
42031;DHT22;27709;52.036;5.906;2022-11-12T20:55:39;7.40;99.90
42031;DHT22;27709;52.036;5.906;2022-11-12T20:58:04;7.40;99.90
42031;DHT22;27709;52.036;5.906;2022-11-12T21:00:30;7.40;99.90
42031;DHT22;27709;52.036;5.906;2022-11-12T21:02:59;7.40;99.90
42031;DHT22;27709;52.036;5.906;2022-11-12T21:05:27;7.30;99.90
42031;DHT22;27709;52.036;5.906;2022-11-12T21:07:54;7.30;99.90
42031;DHT22;27709;52.036;5.906;2022-11-12T21:10:20;7.30;99.90
42031;DHT22;27709;52.036;5.906;2022-11-12T21:12:45;7.20;99.90